Terminal Aerodrome Forecast
Issued by NWS Omaha/Valley, NE

Home | Current Version | Previous Version | Text Only | Print | Product List | Glossary On
Versions: 1 2 3 4 5 6 7 8 9 10 11 12 13 14 15 16 17 18 19 20 21 22 23
000
FTUS43 KOAX 262326
TAFOMA
TAF
KOMA 262326Z 2700/2724 12018G28KT P6SM VCTS BKN040CB OVC120
      TEMPO 2700/2703 3SM TSRA BKN025CB
     FM270300 15009KT P6SM -SHRA OVC050
      TEMPO 2706/2709 5SM -TSRA OVC030CB
     FM270900 14008KT 5SM BR OVC025
      TEMPO 2709/2713 3SM BR OVC015
     FM271300 15006KT 4SM BR OVC015
     FM271800 17008KT P6SM OVC050=

USA.gov is the U.S. government's official web portal to all federal, state and local government web resources and services.